Time;durP1;ratioP1;P1;durP2;ratioP2;P2;SDS_P1;SDS_P2;PMS_P1;PMS_P2;Temp;Humidity;BMP_temperature;BMP_pressure;BME280_temperature;BME280_humidity;BME280_pressure;Samples;Min_cycle;Max_cycle;Signal;HPM_P1;HPM_P2
2022/09/23 00:01:40;;;;;;;18.23;10.33;;;;;;;;;;5013623;28;20531;-69
2022/09/23 00:04:07;;;;;;;15.50;8.67;;;;;;;;;;5029623;28;20812;-69
2022/09/23 00:06:34;;;;;;;15.67;8.20;;;;;;;;;;5029920;28;20717;-69
2022/09/23 00:09:00;;;;;;;16.13;8.13;;;;;;;;;;5030032;28;20450;-69
2022/09/23 00:11:27;;;;;;;17.80;9.27;;;;;;;;;;5030215;28;20454;-69
2022/09/23 00:13:54;;;;;;;13.53;7.80;;;;;;;;;;5029729;28;20506;-69
2022/09/23 00:16:25;;;;;;;15.47;8.53;;;;;;;;;;5027079;28;20447;-69
2022/09/23 00:18:52;;;;;;;13.63;7.33;;;;;;;;;;5027939;28;20481;-69
2022/09/23 00:21:19;;;;;;;13.37;7.57;;;;;;;;;;5030633;28;20503;-69
2022/09/23 00:23:46;;;;;;;14.23;7.60;;;;;;;;;;5030278;28;20484;-68
2022/09/23 00:26:14;;;;;;;19.67;9.37;;;;;;;;;;5032466;28;21128;-68
2022/09/23 00:28:41;;;;;;;12.33;6.77;;;;;;;;;;5029526;28;20450;-69
2022/09/23 00:31:09;;;;;;;11.73;6.63;;;;;;;;;;5029603;28;20448;-68
2022/09/23 00:33:36;;;;;;;11.47;6.23;;;;;;;;;;5011389;28;20976;-69
2022/09/23 00:36:03;;;;;;;12.83;7.17;;;;;;;;;;5013441;28;21021;-69
2022/09/23 00:38:48;;;;;;;12.90;7.03;;;;;;;;;;5028363;28;20440;-69
2022/09/23 00:41:15;;;;;;;14.40;7.20;;;;;;;;;;5029765;28;20966;-69
2022/09/23 00:43:50;;;;;;;14.37;7.20;;;;;;;;;;5029789;28;20446;-69
2022/09/23 00:46:25;;;;;;;10.77;6.50;;;;;;;;;;5029106;28;20844;-69
2022/09/23 00:48:54;;;;;;;13.50;6.43;;;;;;;;;;5040528;28;20496;-69
2022/09/23 00:51:22;;;;;;;11.80;6.57;;;;;;;;;;5011853;28;20492;-68
2022/09/23 00:53:49;;;;;;;14.53;7.50;;;;;;;;;;5013309;28;20466;-68
2022/09/23 00:56:15;;;;;;;15.03;7.03;;;;;;;;;;5027750;28;20455;-69
2022/09/23 00:58:43;;;;;;;12.10;7.07;;;;;;;;;;5028373;28;20480;-68
2022/09/23 01:01:10;;;;;;;10.60;6.30;;;;;;;;;;5013427;28;20433;-68
2022/09/23 01:03:37;;;;;;;14.57;6.93;;;;;;;;;;5010819;28;20686;-68
2022/09/23 01:06:04;;;;;;;13.13;6.33;;;;;;;;;;5029016;28;20541;-68
2022/09/23 01:08:30;;;;;;;11.87;6.20;;;;;;;;;;5026217;28;20508;-69
2022/09/23 01:11:00;;;;;;;11.83;6.23;;;;;;;;;;5011555;28;20460;-68
2022/09/23 01:13:31;;;;;;;11.67;6.60;;;;;;;;;;5028009;28;20508;-69
2022/09/23 01:16:09;;;;;;;12.37;5.97;;;;;;;;;;5012444;28;20845;-68
2022/09/23 01:18:40;;;;;;;10.83;6.07;;;;;;;;;;5028943;28;20461;-68
2022/09/23 01:21:15;;;;;;;10.93;5.60;;;;;;;;;;5029601;28;20458;-68
2022/09/23 01:23:47;;;;;;;12.10;5.77;;;;;;;;;;4993121;28;20498;-69
2022/09/23 01:26:22;;;;;;;12.00;6.00;;;;;;;;;;5007835;28;20464;-68
2022/09/23 01:28:57;;;;;;;10.30;6.17;;;;;;;;;;5028521;28;20979;-68
2022/09/23 01:31:36;;;;;;;9.33;5.57;;;;;;;;;;5030981;28;20549;-68
2022/09/23 01:34:09;;;;;;;7.50;4.80;;;;;;;;;;5028653;28;20810;-68
2022/09/23 01:36:44;;;;;;;9.00;5.30;;;;;;;;;;5028539;28;20876;-68
2022/09/23 01:39:23;;;;;;;7.90;5.07;;;;;;;;;;5029311;28;20449;-68
2022/09/23 01:41:50;;;;;;;8.33;5.20;;;;;;;;;;5026429;28;20461;-68
2022/09/23 01:44:28;;;;;;;6.83;4.87;;;;;;;;;;5002807;28;20457;-68
2022/09/23 01:47:14;;;;;;;8.30;5.30;;;;;;;;;;5028400;28;20439;-69
2022/09/23 01:49:40;;;;;;;7.63;4.97;;;;;;;;;;5029261;28;20817;-68
2022/09/23 01:52:10;;;;;;;8.97;4.70;;;;;;;;;;5030678;28;20794;-68
2022/09/23 01:54:56;;;;;;;9.33;4.57;;;;;;;;;;5029419;28;21045;-68
2022/09/23 01:57:28;;;;;;;9.67;4.60;;;;;;;;;;5027920;28;20461;-69
2022/09/23 01:59:56;;;;;;;9.30;5.30;;;;;;;;;;5028698;28;20976;-68
2022/09/23 02:02:27;;;;;;;9.77;5.43;;;;;;;;;;5006091;28;20805;-69
2022/09/23 02:04:59;;;;;;;8.27;5.27;;;;;;;;;;5027864;28;20857;-68
2022/09/23 02:07:44;;;;;;;9.40;5.20;;;;;;;;;;5028153;28;20451;-68
2022/09/23 02:10:11;;;;;;;8.37;4.67;;;;;;;;;;5027766;28;20458;-68
2022/09/23 02:12:38;;;;;;;6.97;4.77;;;;;;;;;;5028594;28;20482;-68
2022/09/23 02:15:07;;;;;;;10.77;5.70;;;;;;;;;;5028413;28;21392;-68
2022/09/23 02:17:41;;;;;;;11.17;5.70;;;;;;;;;;5019506;28;20450;-68
2022/09/23 02:20:08;;;;;;;9.37;4.87;;;;;;;;;;5027476;28;20516;-69
2022/09/23 02:22:41;;;;;;;11.33;5.37;;;;;;;;;;5011115;28;20468;-69
2022/09/23 02:25:08;;;;;;;8.77;4.90;;;;;;;;;;5028508;28;20552;-68
2022/09/23 02:27:55;;;;;;;8.07;4.78;;;;;;;;;;5011103;28;20338;-67
2022/09/23 02:30:26;;;;;;;10.37;5.20;;;;;;;;;;5028566;28;20183;-67
2022/09/23 02:33:03;;;;;;;9.33;5.67;;;;;;;;;;5030184;28;20472;-67
2022/09/23 02:35:39;;;;;;;8.80;5.43;;;;;;;;;;5010671;28;20995;-68
2022/09/23 02:38:21;;;;;;;6.20;3.93;;;;;;;;;;5010780;28;20445;-68
2022/09/23 02:40:51;;;;;;;8.57;4.93;;;;;;;;;;5008918;28;20425;-67
2022/09/23 02:43:34;;;;;;;7.57;5.00;;;;;;;;;;5009574;28;20439;-68
2022/09/23 02:46:02;;;;;;;8.40;4.70;;;;;;;;;;5012666;28;20814;-67
2022/09/23 02:48:30;;;;;;;8.83;4.97;;;;;;;;;;5027282;28;20449;-67
2022/09/23 02:50:57;;;;;;;9.17;5.40;;;;;;;;;;5025164;28;21024;-67
2022/09/23 02:53:24;;;;;;;6.17;4.60;;;;;;;;;;5014751;28;20438;-68
2022/09/23 02:55:51;;;;;;;8.73;4.50;;;;;;;;;;5039200;28;21041;-68
2022/09/23 02:58:18;;;;;;;6.53;4.30;;;;;;;;;;5049269;28;20433;-68
2022/09/23 03:00:54;;;;;;;7.97;4.50;;;;;;;;;;5027413;28;20535;-67
2022/09/23 03:03:41;;;;;;;7.80;4.43;;;;;;;;;;5028032;28;20463;-68
2022/09/23 03:06:18;;;;;;;6.77;4.40;;;;;;;;;;5014930;28;20615;-67
2022/09/23 03:08:44;;;;;;;6.63;4.43;;;;;;;;;;5014830;28;20542;-68
2022/09/23 03:11:12;;;;;;;7.03;4.50;;;;;;;;;;5027036;28;20837;-68
2022/09/23 03:13:57;;;;;;;9.27;4.53;;;;;;;;;;5010265;28;20456;-68
2022/09/23 03:16:37;;;;;;;7.80;3.77;;;;;;;;;;5028158;28;20490;-68
2022/09/23 03:19:22;;;;;;;8.23;4.50;;;;;;;;;;5025859;28;20836;-67
2022/09/23 03:21:49;;;;;;;6.83;4.37;;;;;;;;;;5028716;28;20423;-67
2022/09/23 03:24:16;;;;;;;8.20;4.30;;;;;;;;;;5026755;28;20453;-68
2022/09/23 03:26:43;;;;;;;7.70;4.40;;;;;;;;;;5025689;28;20452;-68
2022/09/23 03:29:10;;;;;;;5.50;4.00;;;;;;;;;;5025547;28;20449;-67
2022/09/23 03:31:38;;;;;;;5.87;3.63;;;;;;;;;;5008588;28;20556;-68
2022/09/23 03:34:07;;;;;;;10.33;4.50;;;;;;;;;;5028244;28;20561;-68
2022/09/23 03:36:50;;;;;;;7.17;4.13;;;;;;;;;;5026173;28;20495;-68
2022/09/23 03:39:26;;;;;;;7.70;4.30;;;;;;;;;;5026358;28;20457;-68
2022/09/23 03:41:53;;;;;;;6.67;3.73;;;;;;;;;;5025299;28;20453;-68
2022/09/23 03:44:20;;;;;;;6.20;4.17;;;;;;;;;;5027996;28;20457;-68
2022/09/23 03:46:49;;;;;;;7.30;3.50;;;;;;;;;;5025342;28;20540;-67
2022/09/23 03:49:26;;;;;;;7.00;3.87;;;;;;;;;;5027420;28;20455;-67
2022/09/23 03:51:53;;;;;;;8.90;3.87;;;;;;;;;;5026251;28;20445;-67
2022/09/23 03:54:20;;;;;;;8.00;4.17;;;;;;;;;;5027844;28;20450;-68
2022/09/23 03:56:47;;;;;;;9.27;3.80;;;;;;;;;;5024919;28;20486;-67
2022/09/23 03:59:14;;;;;;;7.43;4.43;;;;;;;;;;5009183;28;20554;-68
2022/09/23 04:01:41;;;;;;;6.57;4.00;;;;;;;;;;5027154;28;20453;-67
2022/09/23 04:04:09;;;;;;;9.67;5.03;;;;;;;;;;5028198;28;20438;-68
2022/09/23 04:06:35;;;;;;;7.87;4.80;;;;;;;;;;5010197;28;21011;-67
2022/09/23 04:09:02;;;;;;;10.13;5.07;;;;;;;;;;5027050;28;20449;-67
2022/09/23 04:11:29;;;;;;;11.30;4.47;;;;;;;;;;5008937;28;20530;-67
2022/09/23 04:13:56;;;;;;;11.43;4.83;;;;;;;;;;5027906;28;20472;-67
2022/09/23 04:16:23;;;;;;;8.00;4.53;;;;;;;;;;5026365;28;20485;-67
2022/09/23 04:18:50;;;;;;;8.63;4.20;;;;;;;;;;5026914;28;20998;-67
2022/09/23 04:21:17;;;;;;;8.27;4.27;;;;;;;;;;5024925;28;20450;-68
2022/09/23 04:23:45;;;;;;;9.60;4.37;;;;;;;;;;5022953;28;20446;-68
2022/09/23 04:26:12;;;;;;;10.27;4.17;;;;;;;;;;5027561;28;20457;-67
2022/09/23 04:28:39;;;;;;;7.43;3.67;;;;;;;;;;5014449;28;20444;-67
2022/09/23 04:31:06;;;;;;;7.77;4.20;;;;;;;;;;5009245;28;20481;-68
2022/09/23 04:33:33;;;;;;;9.07;4.00;;;;;;;;;;5027384;28;20454;-67
2022/09/23 04:36:00;;;;;;;5.67;3.73;;;;;;;;;;5027025;28;21087;-67
2022/09/23 04:38:26;;;;;;;7.13;3.37;;;;;;;;;;5028702;28;20451;-67
2022/09/23 04:40:53;;;;;;;6.83;3.70;;;;;;;;;;5016815;28;20525;-68
2022/09/23 04:43:22;;;;;;;8.83;4.37;;;;;;;;;;5030152;28;20454;-69
2022/09/23 04:45:58;;;;;;;14.67;5.43;;;;;;;;;;5029617;28;20864;-69
2022/09/23 04:48:25;;;;;;;10.90;4.20;;;;;;;;;;5032065;28;20437;-67
2022/09/23 04:50:52;;;;;;;7.23;3.83;;;;;;;;;;5030179;28;20978;-68
2022/09/23 04:53:21;;;;;;;7.53;3.70;;;;;;;;;;5032067;28;20426;-67
2022/09/23 04:55:51;;;;;;;8.40;3.77;;;;;;;;;;5029909;28;20481;-68
2022/09/23 04:58:17;;;;;;;8.97;4.40;;;;;;;;;;5031666;28;20492;-68
2022/09/23 05:00:45;;;;;;;6.60;3.50;;;;;;;;;;5031792;28;20428;-69
2022/09/23 05:03:12;;;;;;;6.10;3.80;;;;;;;;;;5032063;28;20873;-68
2022/09/23 05:05:39;;;;;;;6.90;3.63;;;;;;;;;;5032130;28;20430;-69
2022/09/23 05:08:06;;;;;;;8.60;4.00;;;;;;;;;;5032059;28;20495;-68
2022/09/23 05:10:32;;;;;;;5.63;3.80;;;;;;;;;;5031920;28;20441;-67
2022/09/23 05:13:00;;;;;;;8.07;3.53;;;;;;;;;;5030497;28;20450;-68
2022/09/23 05:15:26;;;;;;;6.67;4.10;;;;;;;;;;5022149;28;20832;-68
2022/09/23 05:17:56;;;;;;;9.23;3.63;;;;;;;;;;5030680;28;21060;-68
2022/09/23 05:20:23;;;;;;;8.60;4.30;;;;;;;;;;5029286;28;20468;-68
2022/09/23 05:22:51;;;;;;;10.60;4.77;;;;;;;;;;5031286;28;20437;-68
2022/09/23 05:25:18;;;;;;;11.17;4.97;;;;;;;;;;5029434;28;20441;-69
2022/09/23 05:27:45;;;;;;;10.07;4.93;;;;;;;;;;5030033;28;20454;-68
2022/09/23 05:30:11;;;;;;;9.03;4.47;;;;;;;;;;5011678;28;20963;-68
2022/09/23 05:32:38;;;;;;;12.13;5.47;;;;;;;;;;5027024;28;20488;-68
2022/09/23 05:35:06;;;;;;;9.50;4.90;;;;;;;;;;5030368;28;20492;-68
2022/09/23 05:37:33;;;;;;;9.53;4.10;;;;;;;;;;5009275;28;21446;-68
2022/09/23 05:40:00;;;;;;;11.80;5.90;;;;;;;;;;5020424;28;20952;-68
2022/09/23 05:42:27;;;;;;;9.57;5.43;;;;;;;;;;5028251;28;20909;-68
2022/09/23 05:44:55;;;;;;;9.33;5.20;;;;;;;;;;5027784;28;20503;-68
2022/09/23 05:47:21;;;;;;;6.83;4.70;;;;;;;;;;5017515;28;20517;-68
2022/09/23 05:49:48;;;;;;;11.73;5.33;;;;;;;;;;5020922;28;20969;-68
2022/09/23 05:52:25;;;;;;;8.20;5.13;;;;;;;;;;5028875;28;20465;-68
2022/09/23 05:55:10;;;;;;;7.80;5.37;;;;;;;;;;5028469;28;20444;-68
2022/09/23 05:57:37;;;;;;;9.67;6.33;;;;;;;;;;5008849;28;20480;-68
2022/09/23 06:00:21;;;;;;;10.37;5.87;;;;;;;;;;5026339;28;20759;-68
2022/09/23 06:02:48;;;;;;;10.93;5.67;;;;;;;;;;5002373;28;20549;-68
2022/09/23 06:05:15;;;;;;;11.03;5.67;;;;;;;;;;5029435;28;20483;-68
2022/09/23 06:07:42;;;;;;;10.63;5.37;;;;;;;;;;5019728;28;20537;-68
2022/09/23 06:10:08;;;;;;;13.53;6.43;;;;;;;;;;5028204;28;20450;-68
2022/09/23 06:12:35;;;;;;;12.47;6.60;;;;;;;;;;5012217;28;20468;-68
2022/09/23 06:15:02;;;;;;;14.43;6.97;;;;;;;;;;5029518;28;20454;-68
2022/09/23 06:17:29;;;;;;;9.43;6.63;;;;;;;;;;5028102;28;20214;-68
2022/09/23 06:19:56;;;;;;;13.10;6.97;;;;;;;;;;5029334;28;20245;-68
2022/09/23 06:22:25;;;;;;;12.40;6.73;;;;;;;;;;5029207;28;20801;-68
2022/09/23 06:24:52;;;;;;;11.20;6.83;;;;;;;;;;5027037;28;20278;-69
2022/09/23 06:27:19;;;;;;;9.27;6.83;;;;;;;;;;5028478;28;20195;-69
2022/09/23 06:29:45;;;;;;;10.57;6.00;;;;;;;;;;5028181;28;20216;-68
2022/09/23 06:32:12;;;;;;;8.50;5.90;;;;;;;;;;5029350;28;20286;-68
2022/09/23 06:34:41;;;;;;;9.00;5.67;;;;;;;;;;5028952;28;20223;-69
2022/09/23 06:37:16;;;;;;;9.50;5.83;;;;;;;;;;5028578;28;20669;-68
2022/09/23 06:39:46;;;;;;;10.23;6.20;;;;;;;;;;5027028;28;20246;-69
2022/09/23 06:42:14;;;;;;;9.63;6.10;;;;;;;;;;5036896;28;20198;-68
2022/09/23 06:44:41;;;;;;;7.87;5.77;;;;;;;;;;5031285;28;20191;-69
2022/09/23 06:47:08;;;;;;;8.43;5.53;;;;;;;;;;5021555;28;20673;-69
2022/09/23 06:49:35;;;;;;;7.77;5.17;;;;;;;;;;5022471;28;20222;-68
2022/09/23 06:52:03;;;;;;;6.03;4.73;;;;;;;;;;5028544;28;20686;-68
2022/09/23 06:54:30;;;;;;;7.93;4.70;;;;;;;;;;5029842;28;20274;-68
2022/09/23 06:56:57;;;;;;;7.17;4.60;;;;;;;;;;5009123;28;20227;-68
2022/09/23 06:59:27;;;;;;;7.57;4.50;;;;;;;;;;5028099;28;20215;-69
2022/09/23 07:01:54;;;;;;;6.50;4.00;;;;;;;;;;5028913;28;20698;-69
2022/09/23 07:04:21;;;;;;;5.30;3.10;;;;;;;;;;5028236;28;20734;-69
2022/09/23 07:06:55;;;;;;;5.03;3.10;;;;;;;;;;5048616;28;20194;-69
2022/09/23 07:09:21;;;;;;;4.60;3.00;;;;;;;;;;5030159;28;20190;-69
2022/09/23 07:11:48;;;;;;;4.63;2.33;;;;;;;;;;5025104;28;20663;-69
2022/09/23 07:14:15;;;;;;;4.03;2.40;;;;;;;;;;5026289;28;20192;-69
2022/09/23 07:16:44;;;;;;;4.17;2.13;;;;;;;;;;5028019;28;20294;-69
2022/09/23 07:19:11;;;;;;;2.37;2.07;;;;;;;;;;5028481;28;20207;-67
2022/09/23 07:21:38;;;;;;;3.50;2.10;;;;;;;;;;5024418;28;20222;-69
2022/09/23 07:24:05;;;;;;;3.40;1.50;;;;;;;;;;5026205;28;20194;-69
2022/09/23 07:26:32;;;;;;;2.37;1.80;;;;;;;;;;5039999;28;20248;-68
2022/09/23 07:29:03;;;;;;;2.17;1.20;;;;;;;;;;5031716;28;20214;-69
2022/09/23 07:31:31;;;;;;;2.87;1.40;;;;;;;;;;5021254;28;20568;-69
2022/09/23 07:34:06;;;;;;;3.83;1.33;;;;;;;;;;5027826;28;20927;-69
2022/09/23 07:36:36;;;;;;;2.40;1.03;;;;;;;;;;5029066;28;20234;-68
2022/09/23 07:39:04;;;;;;;1.27;1.00;;;;;;;;;;5025808;28;20186;-68
2022/09/23 07:41:31;;;;;;;2.77;1.30;;;;;;;;;;5025511;28;20206;-69
2022/09/23 07:43:59;;;;;;;2.13;1.30;;;;;;;;;;5020472;28;20558;-69
2022/09/23 07:46:27;;;;;;;1.90;1.20;;;;;;;;;;5025653;28;20195;-68
2022/09/23 07:48:54;;;;;;;2.27;1.10;;;;;;;;;;5015888;28;20706;-68
2022/09/23 07:51:39;;;;;;;2.57;1.30;;;;;;;;;;5027881;28;20182;-68
2022/09/23 07:54:07;;;;;;;3.80;1.10;;;;;;;;;;5028493;28;20670;-68
2022/09/23 07:56:34;;;;;;;1.73;1.00;;;;;;;;;;5019974;28;20221;-68
2022/09/23 07:59:02;;;;;;;1.70;0.90;;;;;;;;;;5023282;28;20217;-69
2022/09/23 08:01:31;;;;;;;1.87;0.90;;;;;;;;;;5024202;28;20187;-68
2022/09/23 08:03:59;;;;;;;2.30;1.00;;;;;;;;;;5024823;28;20195;-69
2022/09/23 08:06:27;;;;;;;1.50;1.10;;;;;;;;;;5021553;28;20196;-69
2022/09/23 08:08:55;;;;;;;2.03;1.30;;;;;;;;;;5028339;28;20184;-68
2022/09/23 08:11:23;;;;;;;2.10;1.00;;;;;;;;;;5026140;28;20195;-68
2022/09/23 08:13:50;;;;;;;2.03;1.50;;;;;;;;;;5019644;28;20547;-68
2022/09/23 08:16:17;;;;;;;0.87;0.87;;;;;;;;;;5023058;28;20661;-69
2022/09/23 08:18:45;;;;;;;1.03;0.87;;;;;;;;;;4997438;28;20184;-69
2022/09/23 08:21:12;;;;;;;1.90;1.00;;;;;;;;;;5031171;28;20218;-69
2022/09/23 08:23:39;;;;;;;1.40;0.80;;;;;;;;;;5031298;28;20205;-69
2022/09/23 08:26:07;;;;;;;0.90;0.67;;;;;;;;;;5026376;28;20188;-70
2022/09/23 08:28:46;;;;;;;0.90;0.70;;;;;;;;;;5029175;28;20265;-68
2022/09/23 08:31:14;;;;;;;2.93;0.90;;;;;;;;;;5029635;28;20259;-68
2022/09/23 08:33:41;;;;;;;1.23;0.77;;;;;;;;;;5030514;28;20246;-68
2022/09/23 08:36:08;;;;;;;2.37;1.00;;;;;;;;;;5030894;28;20192;-69
2022/09/23 08:38:36;;;;;;;1.90;0.80;;;;;;;;;;5027882;28;20693;-69
2022/09/23 08:41:05;;;;;;;1.73;0.90;;;;;;;;;;5031141;28;20226;-69
2022/09/23 08:43:33;;;;;;;2.23;1.10;;;;;;;;;;5021741;28;20200;-69
2022/09/23 08:46:01;;;;;;;0.80;0.60;;;;;;;;;;5030833;28;20195;-69
2022/09/23 08:48:32;;;;;;;1.33;0.60;;;;;;;;;;5031841;28;20179;-68
2022/09/23 08:51:06;;;;;;;0.70;0.50;;;;;;;;;;5014157;28;20211;-68
2022/09/23 08:53:36;;;;;;;0.73;0.70;;;;;;;;;;4997570;28;20196;-69
2022/09/23 08:56:16;;;;;;;0.70;0.40;;;;;;;;;;4996054;28;20191;-68
2022/09/23 08:58:46;;;;;;;0.50;0.47;;;;;;;;;;5029238;28;20271;-69
2022/09/23 09:01:23;;;;;;;0.50;0.50;;;;;;;;;;5017234;28;20207;-68
2022/09/23 09:03:52;;;;;;;1.07;0.60;;;;;;;;;;5026262;28;20847;-68
2022/09/23 09:06:22;;;;;;;0.83;0.47;;;;;;;;;;5029387;28;20190;-68
2022/09/23 09:08:56;;;;;;;2.30;0.50;;;;;;;;;;5031769;28;20194;-69
2022/09/23 09:11:27;;;;;;;1.23;0.80;;;;;;;;;;5010581;28;20195;-69
2022/09/23 09:14:03;;;;;;;0.80;0.53;;;;;;;;;;5037209;28;20266;-68
2022/09/23 09:16:47;;;;;;;1.00;0.70;;;;;;;;;;5033758;28;20866;-69
2022/09/23 09:19:46;;;;;;;0.80;0.60;;;;;;;;;;5026024;28;21007;-68
2022/09/23 09:22:15;;;;;;;1.03;0.50;;;;;;;;;;5027829;28;20225;-69
2022/09/23 09:24:44;;;;;;;0.90;0.50;;;;;;;;;;5028028;28;20195;-68
2022/09/23 09:27:11;;;;;;;0.73;0.50;;;;;;;;;;5010889;28;20728;-68
2022/09/23 09:29:40;;;;;;;1.03;0.50;;;;;;;;;;5031098;28;20188;-69
2022/09/23 09:32:15;;;;;;;0.40;0.40;;;;;;;;;;5029348;28;20724;-68
2022/09/23 09:34:44;;;;;;;0.70;0.50;;;;;;;;;;5026295;28;20186;-68
2022/09/23 09:37:14;;;;;;;0.50;0.40;;;;;;;;;;5030740;28;20238;-68
2022/09/23 09:39:41;;;;;;;1.23;0.40;;;;;;;;;;5027660;28;20305;-68
2022/09/23 09:42:13;;;;;;;0.70;0.30;;;;;;;;;;5028828;28;20249;-68
2022/09/23 09:44:43;;;;;;;0.60;0.50;;;;;;;;;;5027006;28;20200;-68
2022/09/23 09:47:29;;;;;;;1.10;0.50;;;;;;;;;;5030864;28;20651;-68
2022/09/23 09:50:02;;;;;;;1.13;0.70;;;;;;;;;;5028810;28;20198;-69
2022/09/23 09:52:30;;;;;;;3.57;0.90;;;;;;;;;;5012695;28;20191;-69
2022/09/23 09:55:17;;;;;;;2.43;0.70;;;;;;;;;;5029642;28;20187;-68
2022/09/23 09:57:46;;;;;;;1.20;0.60;;;;;;;;;;5018993;28;20238;-69
2022/09/23 10:00:17;;;;;;;2.00;0.40;;;;;;;;;;5028547;28;20195;-68
2022/09/23 10:02:44;;;;;;;1.87;0.60;;;;;;;;;;5028672;28;20195;-68
2022/09/23 10:05:22;;;;;;;1.23;0.53;;;;;;;;;;5005937;28;20662;-68
2022/09/23 10:07:49;;;;;;;0.83;0.53;;;;;;;;;;5010315;28;20211;-68
2022/09/23 10:10:19;;;;;;;0.90;0.77;;;;;;;;;;5030530;28;20194;-68
2022/09/23 10:13:01;;;;;;;0.70;0.50;;;;;;;;;;5013009;28;20667;-68
2022/09/23 10:15:30;;;;;;;1.17;0.80;;;;;;;;;;5009224;28;20200;-68
2022/09/23 10:18:00;;;;;;;1.30;0.70;;;;;;;;;;5016275;28;20203;-68
2022/09/23 10:20:35;;;;;;;2.30;0.90;;;;;;;;;;5029327;28;20586;-69
2022/09/23 10:23:06;;;;;;;1.23;0.80;;;;;;;;;;5027247;28;20666;-68
2022/09/23 10:25:33;;;;;;;1.20;0.80;;;;;;;;;;5027456;28;20187;-68
2022/09/23 10:28:20;;;;;;;0.83;0.70;;;;;;;;;;5030207;28;20610;-68
2022/09/23 10:30:57;;;;;;;0.87;0.70;;;;;;;;;;5029674;28;20194;-68
2022/09/23 10:33:27;;;;;;;2.43;0.70;;;;;;;;;;5027049;28;20593;-68
2022/09/23 10:35:56;;;;;;;1.17;0.80;;;;;;;;;;5030590;28;20210;-68
2022/09/23 10:38:22;;;;;;;1.80;0.80;;;;;;;;;;5028950;28;20211;-69
2022/09/23 10:46:50;;;;;;;0.73;0.60;;;;;;;;;;5028962;28;20184;-68
2022/09/23 10:49:17;;;;;;;1.53;0.70;;;;;;;;;;5016451;28;20188;-68
2022/09/23 10:51:47;;;;;;;0.73;0.57;;;;;;;;;;5027113;28;20187;-68
2022/09/23 10:54:17;;;;;;;0.93;0.50;;;;;;;;;;5026467;28;20191;-68
2022/09/23 10:56:52;;;;;;;0.40;0.40;;;;;;;;;;5015538;28;20234;-68
2022/09/23 10:59:22;;;;;;;0.83;0.53;;;;;;;;;;5023834;28;20630;-67
2022/09/23 11:02:02;;;;;;;0.83;0.67;;;;;;;;;;5026183;28;20195;-67
2022/09/23 11:04:45;;;;;;;0.40;0.40;;;;;;;;;;5029397;28;20279;-68
2022/09/23 11:07:19;;;;;;;0.77;0.53;;;;;;;;;;5016517;28;20667;-67
2022/09/23 11:10:05;;;;;;;1.40;0.60;;;;;;;;;;5019620;28;20227;-68
2022/09/23 11:12:48;;;;;;;0.97;0.60;;;;;;;;;;5024146;28;20199;-68
2022/09/23 11:15:22;;;;;;;2.67;0.60;;;;;;;;;;5023658;28;20219;-68
2022/09/23 11:17:49;;;;;;;1.13;0.53;;;;;;;;;;5016794;28;20211;-67
2022/09/23 11:20:16;;;;;;;1.37;0.60;;;;;;;;;;5016385;28;20224;-68
2022/09/23 11:22:52;;;;;;;1.90;0.50;;;;;;;;;;5026617;28;20202;-68
2022/09/23 11:25:22;;;;;;;0.37;0.37;;;;;;;;;;5014899;28;20192;-68
2022/09/23 11:28:08;;;;;;;2.47;0.50;;;;;;;;;;5006196;28;20207;-67
2022/09/23 11:30:46;;;;;;;1.07;0.50;;;;;;;;;;5006811;28;20196;-67
2022/09/23 11:33:37;;;;;;;1.50;0.53;;;;;;;;;;5011581;28;20226;-67
2022/09/23 11:36:05;;;;;;;1.07;0.40;;;;;;;;;;5021890;28;20203;-67
2022/09/23 11:38:36;;;;;;;1.40;0.47;;;;;;;;;;5029329;28;20262;-67
2022/09/23 11:41:16;;;;;;;0.73;0.50;;;;;;;;;;5026615;28;20195;-68
2022/09/23 11:43:43;;;;;;;1.60;0.60;;;;;;;;;;4991686;28;20220;-68
2022/09/23 11:46:12;;;;;;;1.37;0.60;;;;;;;;;;5008282;28;20286;-67
2022/09/23 11:48:44;;;;;;;1.63;0.70;;;;;;;;;;5028190;28;20202;-67
2022/09/23 11:51:23;;;;;;;0.40;0.40;;;;;;;;;;5032540;28;20202;-67
2022/09/23 11:53:56;;;;;;;0.67;0.40;;;;;;;;;;4996193;28;20196;-67
2022/09/23 11:56:31;;;;;;;0.40;0.40;;;;;;;;;;5012680;28;20231;-67
2022/09/23 11:59:09;;;;;;;0.30;0.30;;;;;;;;;;4996223;28;20611;-67
2022/09/23 12:01:38;;;;;;;0.40;0.40;;;;;;;;;;5009080;28;20663;-68
2022/09/23 12:04:14;;;;;;;0.60;0.30;;;;;;;;;;5028151;28;20575;-68
2022/09/23 12:06:48;;;;;;;0.87;0.40;;;;;;;;;;5011673;28;20254;-68
2022/09/23 12:09:22;;;;;;;0.80;0.50;;;;;;;;;;5013024;28;20192;-68
2022/09/23 12:12:30;;;;;;;0.93;0.50;;;;;;;;;;5002533;28;20191;-68
2022/09/23 12:14:57;;;;;;;0.60;0.33;;;;;;;;;;5035769;28;20224;-68
2022/09/23 12:17:42;;;;;;;0.60;0.37;;;;;;;;;;5015304;28;20207;-68
2022/09/23 12:20:18;;;;;;;1.13;0.33;;;;;;;;;;5031481;28;20681;-67
2022/09/23 12:22:48;;;;;;;1.57;0.40;;;;;;;;;;5032095;28;20183;-68
2022/09/23 12:25:27;;;;;;;1.63;0.50;;;;;;;;;;5036710;28;20180;-68
2022/09/23 12:27:54;;;;;;;1.67;0.40;;;;;;;;;;5032162;28;20195;-68
2022/09/23 12:30:22;;;;;;;0.67;0.40;;;;;;;;;;5034648;28;20568;-68
2022/09/23 12:32:49;;;;;;;0.97;0.60;;;;;;;;;;5034189;28;20629;-68
2022/09/23 12:35:21;;;;;;;0.67;0.30;;;;;;;;;;4998122;28;20671;-69
2022/09/23 12:37:48;;;;;;;0.77;0.37;;;;;;;;;;5030166;28;20302;-68
2022/09/23 12:40:34;;;;;;;0.50;0.50;;;;;;;;;;4996709;28;20250;-68
2022/09/23 12:43:01;;;;;;;0.50;0.50;;;;;;;;;;5011361;28;20180;-68
2022/09/23 12:45:31;;;;;;;1.47;0.90;;;;;;;;;;5011146;28;20188;-68
2022/09/23 12:47:58;;;;;;;0.50;0.40;;;;;;;;;;5023954;28;20730;-68
2022/09/23 12:50:44;;;;;;;0.80;0.60;;;;;;;;;;5014155;28;20314;-68
2022/09/23 12:53:40;;;;;;;2.23;0.93;;;;;;;;;;5031429;28;20540;-68
2022/09/23 12:56:13;;;;;;;0.80;0.40;;;;;;;;;;4959828;28;20241;-68
2022/09/23 12:58:40;;;;;;;1.77;0.50;;;;;;;;;;5026187;28;20220;-69
2022/09/23 13:01:14;;;;;;;0.50;0.40;;;;;;;;;;5013681;28;20226;-68
2022/09/23 13:07:04;;;;;;;0.47;0.40;;;;;;;;;;5012610;28;20250;-68
2022/09/23 13:09:40;;;;;;;1.17;0.50;;;;;;;;;;5011653;28;20215;-68
2022/09/23 13:12:07;;;;;;;0.60;0.50;;;;;;;;;;5012057;28;20550;-69
2022/09/23 13:14:34;;;;;;;0.93;0.50;;;;;;;;;;5012190;28;20770;-68
2022/09/23 13:17:01;;;;;;;0.90;0.63;;;;;;;;;;4994485;28;20815;-68
2022/09/23 13:19:28;;;;;;;0.97;0.70;;;;;;;;;;4993892;28;20192;-68
2022/09/23 13:22:00;;;;;;;1.57;0.50;;;;;;;;;;5022330;28;20198;-68
2022/09/23 13:24:30;;;;;;;0.60;0.40;;;;;;;;;;5026282;28;20220;-69
2022/09/23 13:27:16;;;;;;;1.33;0.50;;;;;;;;;;5011670;28;20208;-68
2022/09/23 13:29:52;;;;;;;0.50;0.50;;;;;;;;;;5025405;28;20192;-68
2022/09/23 13:32:19;;;;;;;0.90;0.60;;;;;;;;;;5012746;28;20230;-68
2022/09/23 13:35:13;;;;;;;0.80;0.50;;;;;;;;;;5012804;28;20270;-68
2022/09/23 13:37:46;;;;;;;0.67;0.50;;;;;;;;;;5020896;28;20207;-68
2022/09/23 13:40:17;;;;;;;1.23;0.50;;;;;;;;;;5027234;28;20227;-68
2022/09/23 13:42:48;;;;;;;1.00;0.50;;;;;;;;;;5021138;28;20183;-69
2022/09/23 13:45:16;;;;;;;1.13;0.67;;;;;;;;;;5030197;28;20206;-68
2022/09/23 13:47:44;;;;;;;1.67;0.73;;;;;;;;;;5013311;28;20662;-68
2022/09/23 13:50:15;;;;;;;0.87;0.47;;;;;;;;;;4996176;28;20187;-68
2022/09/23 13:52:42;;;;;;;0.73;0.50;;;;;;;;;;5013229;28;20196;-68
2022/09/23 13:55:31;;;;;;;1.00;0.70;;;;;;;;;;5012882;28;20200;-69
2022/09/23 13:58:02;;;;;;;5.43;1.60;;;;;;;;;;5030543;28;20257;-68
2022/09/23 14:00:34;;;;;;;85.40;27.10;;;;;;;;;;5004273;28;20197;-68
2022/09/23 14:03:02;;;;;;;1.80;1.03;;;;;;;;;;5027582;28;20222;-68
2022/09/23 14:05:32;;;;;;;1.00;0.70;;;;;;;;;;5029067;28;20196;-68
2022/09/23 14:07:59;;;;;;;0.70;0.50;;;;;;;;;;5017628;28;20223;-69
2022/09/23 14:10:26;;;;;;;1.47;1.00;;;;;;;;;;5030016;28;20618;-68
2022/09/23 14:12:53;;;;;;;1.50;1.30;;;;;;;;;;5011937;28;20192;-68
2022/09/23 14:15:20;;;;;;;1.17;0.60;;;;;;;;;;5012926;28;20257;-68
2022/09/23 14:17:53;;;;;;;0.77;0.70;;;;;;;;;;5017773;28;20239;-68
2022/09/23 14:20:44;;;;;;;0.43;0.40;;;;;;;;;;5015020;28;20700;-68
2022/09/23 14:23:12;;;;;;;1.70;0.87;;;;;;;;;;5016672;28;20196;-68
2022/09/23 14:25:40;;;;;;;5.10;3.10;;;;;;;;;;5030139;28;20306;-68
2022/09/23 14:28:08;;;;;;;1.93;0.80;;;;;;;;;;5012329;28;20274;-68
2022/09/23 14:30:37;;;;;;;2.10;0.53;;;;;;;;;;5030000;28;20206;-68
2022/09/23 14:33:07;;;;;;;2.83;0.70;;;;;;;;;;4995828;28;20262;-68
2022/09/23 14:35:38;;;;;;;3.77;0.80;;;;;;;;;;4995562;28;20191;-68
2022/09/23 14:40:51;;;;;;;3.70;1.00;;;;;;;;;;5004212;28;20184;-68
2022/09/23 14:43:25;;;;;;;2.47;1.20;;;;;;;;;;5026477;28;20195;-69
2022/09/23 14:45:53;;;;;;;3.50;1.00;;;;;;;;;;5029537;28;20701;-68
2022/09/23 14:48:23;;;;;;;8.67;1.57;;;;;;;;;;5029436;28;20250;-68
2022/09/23 14:50:50;;;;;;;10.43;1.77;;;;;;;;;;5029896;28;20551;-68
2022/09/23 14:53:26;;;;;;;9.77;1.53;;;;;;;;;;5003373;28;21064;-69
2022/09/23 14:56:05;;;;;;;13.73;1.67;;;;;;;;;;5018055;28;20195;-68
2022/09/23 14:58:49;;;;;;;6.77;1.27;;;;;;;;;;5029353;28;20223;-68
2022/09/23 15:01:31;;;;;;;7.90;1.47;;;;;;;;;;5018799;28;21055;-68
2022/09/23 15:03:59;;;;;;;6.00;1.37;;;;;;;;;;5029145;28;20195;-68
2022/09/23 15:06:26;;;;;;;5.53;1.13;;;;;;;;;;5011490;28;20520;-69
2022/09/23 15:08:53;;;;;;;4.63;1.00;;;;;;;;;;5005196;28;20195;-68
2022/09/23 15:11:20;;;;;;;5.27;1.23;;;;;;;;;;5029217;28;20286;-68
2022/09/23 15:13:51;;;;;;;7.10;1.67;;;;;;;;;;5011518;28;20210;-68
2022/09/23 15:16:23;;;;;;;9.13;1.67;;;;;;;;;;5011515;28;20662;-68